sensor_id;sensor_type;location;lat;lon;timestamp;P1;durP1;ratioP1;P2;durP2;ratioP2
6376;SDS011;3221;48.858;10.128;2023-04-10T00:00:01;15.53;;;11.67;;
6376;SDS011;3221;48.858;10.128;2023-04-10T00:02:30;15.70;;;10.90;;
6376;SDS011;3221;48.858;10.128;2023-04-10T00:04:57;15.10;;;10.63;;
6376;SDS011;3221;48.858;10.128;2023-04-10T00:07:25;14.60;;;10.63;;
6376;SDS011;3221;48.858;10.128;2023-04-10T00:09:52;15.17;;;11.13;;
6376;SDS011;3221;48.858;10.128;2023-04-10T00:12:19;17.17;;;11.53;;
6376;SDS011;3221;48.858;10.128;2023-04-10T00:14:46;14.90;;;10.83;;
6376;SDS011;3221;48.858;10.128;2023-04-10T00:17:13;16.80;;;11.17;;
6376;SDS011;3221;48.858;10.128;2023-04-10T00:19:40;14.43;;;10.67;;
6376;SDS011;3221;48.858;10.128;2023-04-10T00:22:06;14.57;;;10.47;;
6376;SDS011;3221;48.858;10.128;2023-04-10T00:24:33;16.30;;;10.83;;
6376;SDS011;3221;48.858;10.128;2023-04-10T00:27:00;14.90;;;10.43;;
6376;SDS011;3221;48.858;10.128;2023-04-10T00:29:27;14.87;;;11.00;;
6376;SDS011;3221;48.858;10.128;2023-04-10T00:31:54;14.53;;;10.87;;
6376;SDS011;3221;48.858;10.128;2023-04-10T00:34:21;14.07;;;10.97;;
6376;SDS011;3221;48.858;10.128;2023-04-10T00:36:48;17.30;;;11.27;;
6376;SDS011;3221;48.858;10.128;2023-04-10T00:39:15;15.67;;;10.83;;
6376;SDS011;3221;48.858;10.128;2023-04-10T00:41:42;14.30;;;10.67;;
6376;SDS011;3221;48.858;10.128;2023-04-10T00:44:09;16.13;;;11.13;;
6376;SDS011;3221;48.858;10.128;2023-04-10T00:46:36;15.23;;;10.97;;
6376;SDS011;3221;48.858;10.128;2023-04-10T00:49:05;15.23;;;11.00;;
6376;SDS011;3221;48.858;10.128;2023-04-10T00:51:32;16.60;;;11.53;;
6376;SDS011;3221;48.858;10.128;2023-04-10T00:53:59;16.40;;;11.67;;
6376;SDS011;3221;48.858;10.128;2023-04-10T00:56:29;16.00;;;10.57;;
6376;SDS011;3221;48.858;10.128;2023-04-10T00:58:59;14.50;;;10.83;;
6376;SDS011;3221;48.858;10.128;2023-04-10T01:01:30;14.87;;;11.13;;
6376;SDS011;3221;48.858;10.128;2023-04-10T01:03:57;15.43;;;10.90;;
6376;SDS011;3221;48.858;10.128;2023-04-10T01:09:47;15.50;;;11.03;;
6376;SDS011;3221;48.858;10.128;2023-04-10T01:12:21;15.63;;;11.00;;
6376;SDS011;3221;48.858;10.128;2023-04-10T01:15:09;15.10;;;10.97;;
6376;SDS011;3221;48.858;10.128;2023-04-10T01:17:49;15.27;;;10.93;;
6376;SDS011;3221;48.858;10.128;2023-04-10T01:20:23;15.97;;;10.77;;
6376;SDS011;3221;48.858;10.128;2023-04-10T01:23:11;15.13;;;10.70;;
6376;SDS011;3221;48.858;10.128;2023-04-10T01:31:20;16.60;;;11.40;;
6376;SDS011;3221;48.858;10.128;2023-04-10T01:34:07;15.30;;;10.90;;
6376;SDS011;3221;48.858;10.128;2023-04-10T01:36:39;14.60;;;10.57;;
6376;SDS011;3221;48.858;10.128;2023-04-10T01:39:15;15.83;;;10.97;;
6376;SDS011;3221;48.858;10.128;2023-04-10T01:41:44;14.33;;;10.93;;
6376;SDS011;3221;48.858;10.128;2023-04-10T01:44:13;14.77;;;10.83;;
6376;SDS011;3221;48.858;10.128;2023-04-10T01:46:41;14.00;;;10.50;;
6376;SDS011;3221;48.858;10.128;2023-04-10T01:49:09;15.70;;;11.30;;
6376;SDS011;3221;48.858;10.128;2023-04-10T01:51:37;15.33;;;11.13;;
6376;SDS011;3221;48.858;10.128;2023-04-10T01:54:08;16.73;;;11.10;;
6376;SDS011;3221;48.858;10.128;2023-04-10T01:56:36;15.10;;;10.97;;
6376;SDS011;3221;48.858;10.128;2023-04-10T01:59:03;15.80;;;11.17;;
6376;SDS011;3221;48.858;10.128;2023-04-10T02:01:31;15.30;;;10.90;;
6376;SDS011;3221;48.858;10.128;2023-04-10T02:04:00;16.07;;;10.80;;
6376;SDS011;3221;48.858;10.128;2023-04-10T02:06:30;15.77;;;11.50;;
6376;SDS011;3221;48.858;10.128;2023-04-10T02:09:24;16.17;;;11.30;;
6376;SDS011;3221;48.858;10.128;2023-04-10T02:12:08;15.83;;;11.43;;
6376;SDS011;3221;48.858;10.128;2023-04-10T02:14:40;14.97;;;10.23;;
6376;SDS011;3221;48.858;10.128;2023-04-10T02:17:10;15.70;;;11.37;;
6376;SDS011;3221;48.858;10.128;2023-04-10T02:19:41;15.80;;;11.47;;
6376;SDS011;3221;48.858;10.128;2023-04-10T02:22:12;15.57;;;10.80;;
6376;SDS011;3221;48.858;10.128;2023-04-10T02:24:41;16.77;;;11.53;;
6376;SDS011;3221;48.858;10.128;2023-04-10T02:27:09;15.23;;;11.23;;
6376;SDS011;3221;48.858;10.128;2023-04-10T02:29:36;15.93;;;11.50;;
6376;SDS011;3221;48.858;10.128;2023-04-10T02:32:05;15.63;;;11.53;;
6376;SDS011;3221;48.858;10.128;2023-04-10T02:34:32;18.90;;;12.13;;
6376;SDS011;3221;48.858;10.128;2023-04-10T02:36:59;14.93;;;11.00;;
6376;SDS011;3221;48.858;10.128;2023-04-10T02:39:27;13.83;;;10.50;;
6376;SDS011;3221;48.858;10.128;2023-04-10T02:41:54;16.73;;;11.23;;
6376;SDS011;3221;48.858;10.128;2023-04-10T02:44:22;14.13;;;10.60;;
6376;SDS011;3221;48.858;10.128;2023-04-10T02:46:49;14.07;;;10.80;;
6376;SDS011;3221;48.858;10.128;2023-04-10T02:49:17;13.73;;;10.33;;
6376;SDS011;3221;48.858;10.128;2023-04-10T02:51:44;13.53;;;10.63;;
6376;SDS011;3221;48.858;10.128;2023-04-10T02:54:12;13.80;;;10.13;;
6376;SDS011;3221;48.858;10.128;2023-04-10T02:56:40;14.57;;;9.97;;
6376;SDS011;3221;48.858;10.128;2023-04-10T02:59:07;12.80;;;9.57;;
6376;SDS011;3221;48.858;10.128;2023-04-10T03:01:34;14.73;;;10.43;;
6376;SDS011;3221;48.858;10.128;2023-04-10T03:04:01;14.43;;;9.90;;
6376;SDS011;3221;48.858;10.128;2023-04-10T03:06:34;14.27;;;9.70;;
6376;SDS011;3221;48.858;10.128;2023-04-10T03:09:01;14.70;;;10.00;;
6376;SDS011;3221;48.858;10.128;2023-04-10T03:11:28;14.30;;;10.40;;
6376;SDS011;3221;48.858;10.128;2023-04-10T03:13:55;14.17;;;10.30;;
6376;SDS011;3221;48.858;10.128;2023-04-10T03:16:25;15.17;;;11.20;;
6376;SDS011;3221;48.858;10.128;2023-04-10T03:18:52;14.30;;;10.60;;
6376;SDS011;3221;48.858;10.128;2023-04-10T03:21:19;14.93;;;10.80;;
6376;SDS011;3221;48.858;10.128;2023-04-10T03:23:47;15.30;;;10.67;;
6376;SDS011;3221;48.858;10.128;2023-04-10T03:26:14;15.47;;;10.70;;
6376;SDS011;3221;48.858;10.128;2023-04-10T03:28:41;14.87;;;10.70;;
6376;SDS011;3221;48.858;10.128;2023-04-10T03:31:09;14.03;;;9.93;;
6376;SDS011;3221;48.858;10.128;2023-04-10T03:33:39;15.90;;;10.57;;
6376;SDS011;3221;48.858;10.128;2023-04-10T03:36:07;16.13;;;11.37;;
6376;SDS011;3221;48.858;10.128;2023-04-10T03:38:34;14.20;;;10.37;;
6376;SDS011;3221;48.858;10.128;2023-04-10T03:41:02;16.37;;;10.90;;
6376;SDS011;3221;48.858;10.128;2023-04-10T03:43:31;15.10;;;10.80;;
6376;SDS011;3221;48.858;10.128;2023-04-10T03:45:59;14.57;;;10.53;;
6376;SDS011;3221;48.858;10.128;2023-04-10T03:48:27;15.73;;;11.20;;
6376;SDS011;3221;48.858;10.128;2023-04-10T03:50:56;14.97;;;10.53;;
6376;SDS011;3221;48.858;10.128;2023-04-10T03:53:23;15.13;;;11.30;;
6376;SDS011;3221;48.858;10.128;2023-04-10T03:55:52;14.53;;;10.70;;
6376;SDS011;3221;48.858;10.128;2023-04-10T03:58:21;15.97;;;11.57;;
6376;SDS011;3221;48.858;10.128;2023-04-10T04:00:49;15.33;;;10.87;;
6376;SDS011;3221;48.858;10.128;2023-04-10T04:03:43;13.80;;;10.20;;
6376;SDS011;3221;48.858;10.128;2023-04-10T04:06:25;14.30;;;10.40;;
6376;SDS011;3221;48.858;10.128;2023-04-10T04:09:15;13.43;;;10.37;;
6376;SDS011;3221;48.858;10.128;2023-04-10T04:11:55;14.60;;;10.97;;
6376;SDS011;3221;48.858;10.128;2023-04-10T04:14:40;15.20;;;10.90;;
6376;SDS011;3221;48.858;10.128;2023-04-10T04:17:28;15.83;;;10.87;;
6376;SDS011;3221;48.858;10.128;2023-04-10T04:20:04;14.70;;;10.60;;
6376;SDS011;3221;48.858;10.128;2023-04-10T04:22:52;15.17;;;10.53;;
6376;SDS011;3221;48.858;10.128;2023-04-10T04:25:38;16.17;;;11.27;;
6376;SDS011;3221;48.858;10.128;2023-04-10T04:28:20;17.67;;;12.00;;
6376;SDS011;3221;48.858;10.128;2023-04-10T04:31:07;15.13;;;10.97;;
6376;SDS011;3221;48.858;10.128;2023-04-10T04:33:53;15.17;;;10.83;;
6376;SDS011;3221;48.858;10.128;2023-04-10T04:36:49;17.77;;;11.10;;
6376;SDS011;3221;48.858;10.128;2023-04-10T04:39:34;14.77;;;10.73;;
6376;SDS011;3221;48.858;10.128;2023-04-10T04:42:20;15.37;;;11.03;;
6376;SDS011;3221;48.858;10.128;2023-04-10T04:45:09;15.27;;;11.07;;
6376;SDS011;3221;48.858;10.128;2023-04-10T04:47:36;13.83;;;10.43;;
6376;SDS011;3221;48.858;10.128;2023-04-10T04:50:13;15.03;;;10.63;;
6376;SDS011;3221;48.858;10.128;2023-04-10T04:52:53;17.00;;;11.40;;
6376;SDS011;3221;48.858;10.128;2023-04-10T04:55:38;15.27;;;11.03;;
6376;SDS011;3221;48.858;10.128;2023-04-10T04:58:35;15.57;;;10.63;;
6376;SDS011;3221;48.858;10.128;2023-04-10T05:01:20;14.67;;;10.77;;
6376;SDS011;3221;48.858;10.128;2023-04-10T05:04:13;15.67;;;10.90;;
6376;SDS011;3221;48.858;10.128;2023-04-10T05:06:54;14.70;;;10.10;;
6376;SDS011;3221;48.858;10.128;2023-04-10T05:09:39;16.43;;;10.83;;
6376;SDS011;3221;48.858;10.128;2023-04-10T05:12:26;15.93;;;10.70;;
6376;SDS011;3221;48.858;10.128;2023-04-10T05:15:05;15.83;;;10.97;;
6376;SDS011;3221;48.858;10.128;2023-04-10T05:17:40;16.07;;;11.03;;
6376;SDS011;3221;48.858;10.128;2023-04-10T05:20:15;14.83;;;9.73;;
6376;SDS011;3221;48.858;10.128;2023-04-10T05:22:56;15.63;;;10.73;;
6376;SDS011;3221;48.858;10.128;2023-04-10T05:25:41;17.13;;;10.63;;
6376;SDS011;3221;48.858;10.128;2023-04-10T05:28:29;16.20;;;11.03;;
6376;SDS011;3221;48.858;10.128;2023-04-10T05:31:24;16.23;;;10.60;;
6376;SDS011;3221;48.858;10.128;2023-04-10T05:34:05;15.40;;;10.37;;
6376;SDS011;3221;48.858;10.128;2023-04-10T05:36:50;14.93;;;9.93;;
6376;SDS011;3221;48.858;10.128;2023-04-10T05:39:28;14.80;;;10.13;;
6376;SDS011;3221;48.858;10.128;2023-04-10T05:42:25;15.73;;;10.77;;
6376;SDS011;3221;48.858;10.128;2023-04-10T05:45:09;15.17;;;10.47;;
6376;SDS011;3221;48.858;10.128;2023-04-10T05:47:56;14.57;;;10.53;;
6376;SDS011;3221;48.858;10.128;2023-04-10T05:50:27;14.40;;;10.17;;
6376;SDS011;3221;48.858;10.128;2023-04-10T05:53:12;15.97;;;10.30;;
6376;SDS011;3221;48.858;10.128;2023-04-10T05:55:49;13.73;;;9.90;;
6376;SDS011;3221;48.858;10.128;2023-04-10T05:58:37;16.50;;;10.80;;
6376;SDS011;3221;48.858;10.128;2023-04-10T06:01:13;14.67;;;10.40;;
6376;SDS011;3221;48.858;10.128;2023-04-10T06:03:51;15.40;;;10.10;;
6376;SDS011;3221;48.858;10.128;2023-04-10T06:06:19;15.10;;;10.30;;
6376;SDS011;3221;48.858;10.128;2023-04-10T06:08:47;14.50;;;10.10;;
6376;SDS011;3221;48.858;10.128;2023-04-10T06:11:15;14.90;;;9.70;;
6376;SDS011;3221;48.858;10.128;2023-04-10T06:13:46;16.50;;;10.70;;
6376;SDS011;3221;48.858;10.128;2023-04-10T06:16:13;15.47;;;10.50;;
6376;SDS011;3221;48.858;10.128;2023-04-10T06:18:44;16.10;;;10.33;;
6376;SDS011;3221;48.858;10.128;2023-04-10T06:21:12;14.37;;;10.00;;
6376;SDS011;3221;48.858;10.128;2023-04-10T06:23:39;16.17;;;10.07;;
6376;SDS011;3221;48.858;10.128;2023-04-10T06:26:07;17.57;;;10.53;;
6376;SDS011;3221;48.858;10.128;2023-04-10T06:28:34;16.57;;;10.97;;
6376;SDS011;3221;48.858;10.128;2023-04-10T06:31:05;15.27;;;10.33;;
6376;SDS011;3221;48.858;10.128;2023-04-10T06:33:34;13.03;;;9.73;;
6376;SDS011;3221;48.858;10.128;2023-04-10T06:36:04;15.43;;;10.70;;
6376;SDS011;3221;48.858;10.128;2023-04-10T06:38:37;14.63;;;10.03;;
6376;SDS011;3221;48.858;10.128;2023-04-10T06:41:04;16.47;;;10.87;;
6376;SDS011;3221;48.858;10.128;2023-04-10T06:43:35;15.23;;;10.17;;
6376;SDS011;3221;48.858;10.128;2023-04-10T06:46:04;14.60;;;10.57;;
6376;SDS011;3221;48.858;10.128;2023-04-10T06:48:32;16.00;;;10.93;;
6376;SDS011;3221;48.858;10.128;2023-04-10T06:50:59;15.57;;;10.40;;
6376;SDS011;3221;48.858;10.128;2023-04-10T06:53:26;15.53;;;10.37;;
6376;SDS011;3221;48.858;10.128;2023-04-10T06:55:53;14.43;;;10.17;;
6376;SDS011;3221;48.858;10.128;2023-04-10T06:58:20;16.20;;;10.23;;
6376;SDS011;3221;48.858;10.128;2023-04-10T07:00:47;13.63;;;10.03;;
6376;SDS011;3221;48.858;10.128;2023-04-10T07:03:14;14.63;;;10.60;;
6376;SDS011;3221;48.858;10.128;2023-04-10T07:05:41;14.20;;;9.97;;
6376;SDS011;3221;48.858;10.128;2023-04-10T07:08:08;13.80;;;10.30;;
6376;SDS011;3221;48.858;10.128;2023-04-10T07:10:35;14.60;;;10.60;;
6376;SDS011;3221;48.858;10.128;2023-04-10T07:13:02;15.23;;;10.87;;
6376;SDS011;3221;48.858;10.128;2023-04-10T07:15:29;17.17;;;10.43;;
6376;SDS011;3221;48.858;10.128;2023-04-10T07:17:56;18.77;;;10.83;;
6376;SDS011;3221;48.858;10.128;2023-04-10T07:20:23;13.87;;;10.03;;
6376;SDS011;3221;48.858;10.128;2023-04-10T07:22:50;15.27;;;10.50;;
6376;SDS011;3221;48.858;10.128;2023-04-10T07:25:17;14.17;;;9.93;;
6376;SDS011;3221;48.858;10.128;2023-04-10T07:27:44;16.70;;;10.63;;
6376;SDS011;3221;48.858;10.128;2023-04-10T07:30:11;13.20;;;9.33;;
6376;SDS011;3221;48.858;10.128;2023-04-10T07:32:39;13.77;;;10.17;;
6376;SDS011;3221;48.858;10.128;2023-04-10T07:35:08;15.20;;;10.53;;
6376;SDS011;3221;48.858;10.128;2023-04-10T07:37:35;14.43;;;10.03;;
6376;SDS011;3221;48.858;10.128;2023-04-10T07:40:02;14.97;;;9.73;;
6376;SDS011;3221;48.858;10.128;2023-04-10T07:42:29;15.10;;;9.07;;
6376;SDS011;3221;48.858;10.128;2023-04-10T07:44:56;12.77;;;8.77;;
6376;SDS011;3221;48.858;10.128;2023-04-10T07:47:23;14.47;;;9.37;;
6376;SDS011;3221;48.858;10.128;2023-04-10T07:49:50;13.33;;;9.33;;
6376;SDS011;3221;48.858;10.128;2023-04-10T07:52:17;13.63;;;9.10;;
6376;SDS011;3221;48.858;10.128;2023-04-10T07:54:44;13.87;;;9.10;;
6376;SDS011;3221;48.858;10.128;2023-04-10T07:57:11;15.37;;;10.10;;
6376;SDS011;3221;48.858;10.128;2023-04-10T07:59:38;15.23;;;9.77;;
6376;SDS011;3221;48.858;10.128;2023-04-10T08:02:05;14.60;;;9.77;;
6376;SDS011;3221;48.858;10.128;2023-04-10T08:04:32;14.27;;;9.53;;
6376;SDS011;3221;48.858;10.128;2023-04-10T08:07:00;14.83;;;10.30;;
6376;SDS011;3221;48.858;10.128;2023-04-10T08:09:27;14.27;;;9.83;;
6376;SDS011;3221;48.858;10.128;2023-04-10T08:11:54;14.83;;;10.07;;
6376;SDS011;3221;48.858;10.128;2023-04-10T08:14:22;18.37;;;10.03;;
6376;SDS011;3221;48.858;10.128;2023-04-10T08:16:49;13.17;;;9.60;;
6376;SDS011;3221;48.858;10.128;2023-04-10T08:19:16;16.20;;;10.10;;
6376;SDS011;3221;48.858;10.128;2023-04-10T08:21:43;13.67;;;9.87;;
6376;SDS011;3221;48.858;10.128;2023-04-10T08:24:10;14.07;;;9.70;;
6376;SDS011;3221;48.858;10.128;2023-04-10T08:26:37;13.63;;;9.93;;
6376;SDS011;3221;48.858;10.128;2023-04-10T08:29:04;13.67;;;9.87;;
6376;SDS011;3221;48.858;10.128;2023-04-10T08:31:31;14.30;;;10.63;;
6376;SDS011;3221;48.858;10.128;2023-04-10T08:34:00;13.60;;;9.13;;
6376;SDS011;3221;48.858;10.128;2023-04-10T08:36:26;13.73;;;9.17;;
6376;SDS011;3221;48.858;10.128;2023-04-10T08:38:53;12.37;;;8.87;;
6376;SDS011;3221;48.858;10.128;2023-04-10T08:41:20;12.97;;;8.83;;
6376;SDS011;3221;48.858;10.128;2023-04-10T08:43:47;14.17;;;9.67;;
6376;SDS011;3221;48.858;10.128;2023-04-10T08:46:16;12.20;;;8.57;;
6376;SDS011;3221;48.858;10.128;2023-04-10T08:48:47;12.87;;;8.67;;
6376;SDS011;3221;48.858;10.128;2023-04-10T08:51:31;12.30;;;8.80;;
6376;SDS011;3221;48.858;10.128;2023-04-10T08:54:27;13.30;;;9.30;;
6376;SDS011;3221;48.858;10.128;2023-04-10T08:56:55;11.57;;;8.63;;
6376;SDS011;3221;48.858;10.128;2023-04-10T08:59:23;11.77;;;8.77;;
6376;SDS011;3221;48.858;10.128;2023-04-10T09:01:52;12.30;;;8.43;;
6376;SDS011;3221;48.858;10.128;2023-04-10T09:04:19;11.37;;;7.97;;
6376;SDS011;3221;48.858;10.128;2023-04-10T09:06:47;10.63;;;7.63;;
6376;SDS011;3221;48.858;10.128;2023-04-10T09:09:14;11.43;;;8.57;;
6376;SDS011;3221;48.858;10.128;2023-04-10T09:14:21;12.73;;;8.40;;
6376;SDS011;3221;48.858;10.128;2023-04-10T09:16:49;14.67;;;7.70;;
6376;SDS011;3221;48.858;10.128;2023-04-10T09:19:28;10.57;;;7.27;;
6376;SDS011;3221;48.858;10.128;2023-04-10T09:21:56;11.23;;;8.00;;
6376;SDS011;3221;48.858;10.128;2023-04-10T09:24:23;11.27;;;7.63;;
6376;SDS011;3221;48.858;10.128;2023-04-10T09:26:50;9.60;;;7.13;;
6376;SDS011;3221;48.858;10.128;2023-04-10T09:29:17;10.07;;;6.87;;
6376;SDS011;3221;48.858;10.128;2023-04-10T09:31:44;9.17;;;6.67;;
6376;SDS011;3221;48.858;10.128;2023-04-10T09:34:16;10.23;;;6.77;;
6376;SDS011;3221;48.858;10.128;2023-04-10T09:36:56;8.47;;;6.27;;
6376;SDS011;3221;48.858;10.128;2023-04-10T09:39:37;9.57;;;6.50;;
6376;SDS011;3221;48.858;10.128;2023-04-10T09:42:09;8.27;;;6.07;;
6376;SDS011;3221;48.858;10.128;2023-04-10T09:44:39;7.93;;;6.27;;
6376;SDS011;3221;48.858;10.128;2023-04-10T09:52:18;8.67;;;6.50;;
6376;SDS011;3221;48.858;10.128;2023-04-10T09:54:52;8.77;;;6.67;;
6376;SDS011;3221;48.858;10.128;2023-04-10T09:57:20;7.97;;;6.23;;
6376;SDS011;3221;48.858;10.128;2023-04-10T09:59:49;8.73;;;6.50;;
6376;SDS011;3221;48.858;10.128;2023-04-10T10:02:21;8.10;;;6.50;;
6376;SDS011;3221;48.858;10.128;2023-04-10T10:04:50;8.23;;;6.63;;
6376;SDS011;3221;48.858;10.128;2023-04-10T10:07:18;8.20;;;5.90;;
6376;SDS011;3221;48.858;10.128;2023-04-10T10:09:47;8.80;;;6.43;;
6376;SDS011;3221;48.858;10.128;2023-04-10T10:12:27;8.17;;;6.30;;
6376;SDS011;3221;48.858;10.128;2023-04-10T10:15:00;9.00;;;6.33;;
6376;SDS011;3221;48.858;10.128;2023-04-10T10:17:44;7.40;;;6.00;;
6376;SDS011;3221;48.858;10.128;2023-04-10T10:20:25;8.07;;;6.13;;
6376;SDS011;3221;48.858;10.128;2023-04-10T10:22:57;5.93;;;5.10;;
6376;SDS011;3221;48.858;10.128;2023-04-10T10:25:27;8.50;;;5.87;;
6376;SDS011;3221;48.858;10.128;2023-04-10T10:27:57;7.93;;;5.90;;
6376;SDS011;3221;48.858;10.128;2023-04-10T10:30:29;6.60;;;5.10;;
6376;SDS011;3221;48.858;10.128;2023-04-10T10:33:01;7.90;;;5.40;;
6376;SDS011;3221;48.858;10.128;2023-04-10T10:35:35;6.57;;;5.27;;
6376;SDS011;3221;48.858;10.128;2023-04-10T10:38:03;5.43;;;4.67;;
6376;SDS011;3221;48.858;10.128;2023-04-10T10:40:31;8.10;;;4.83;;
6376;SDS011;3221;48.858;10.128;2023-04-10T10:43:19;5.97;;;4.93;;
6376;SDS011;3221;48.858;10.128;2023-04-10T10:46:01;6.40;;;5.30;;
6376;SDS011;3221;48.858;10.128;2023-04-10T10:48:32;7.27;;;5.47;;
6376;SDS011;3221;48.858;10.128;2023-04-10T10:50:59;6.67;;;5.63;;
6376;SDS011;3221;48.858;10.128;2023-04-10T10:55:57;6.97;;;5.50;;
6376;SDS011;3221;48.858;10.128;2023-04-10T10:58:46;7.83;;;5.93;;
6376;SDS011;3221;48.858;10.128;2023-04-10T11:01:13;8.50;;;5.70;;
6376;SDS011;3221;48.858;10.128;2023-04-10T11:03:41;6.57;;;5.27;;
6376;SDS011;3221;48.858;10.128;2023-04-10T11:06:19;7.23;;;5.70;;
6376;SDS011;3221;48.858;10.128;2023-04-10T11:08:48;7.17;;;5.73;;
6376;SDS011;3221;48.858;10.128;2023-04-10T11:11:25;6.37;;;4.87;;
6376;SDS011;3221;48.858;10.128;2023-04-10T11:16:23;7.27;;;5.70;;
6376;SDS011;3221;48.858;10.128;2023-04-10T11:19:09;6.60;;;5.37;;
6376;SDS011;3221;48.858;10.128;2023-04-10T11:21:58;6.77;;;5.50;;
6376;SDS011;3221;48.858;10.128;2023-04-10T11:24:25;6.33;;;5.33;;
6376;SDS011;3221;48.858;10.128;2023-04-10T11:26:53;7.20;;;5.50;;
6376;SDS011;3221;48.858;10.128;2023-04-10T11:31:57;6.63;;;5.13;;
6376;SDS011;3221;48.858;10.128;2023-04-10T11:34:26;6.47;;;5.50;;
6376;SDS011;3221;48.858;10.128;2023-04-10T11:36:53;7.03;;;5.50;;
6376;SDS011;3221;48.858;10.128;2023-04-10T11:39:21;5.80;;;4.97;;
6376;SDS011;3221;48.858;10.128;2023-04-10T11:41:49;7.40;;;5.77;;
6376;SDS011;3221;48.858;10.128;2023-04-10T11:44:30;6.17;;;5.10;;
6376;SDS011;3221;48.858;10.128;2023-04-10T11:47:00;6.93;;;5.20;;
6376;SDS011;3221;48.858;10.128;2023-04-10T11:49:31;6.97;;;4.83;;
6376;SDS011;3221;48.858;10.128;2023-04-10T11:52:00;6.50;;;4.50;;
6376;SDS011;3221;48.858;10.128;2023-04-10T11:54:27;5.10;;;4.20;;
6376;SDS011;3221;48.858;10.128;2023-04-10T11:57:01;5.70;;;4.60;;
6376;SDS011;3221;48.858;10.128;2023-04-10T11:59:30;6.37;;;4.47;;
6376;SDS011;3221;48.858;10.128;2023-04-10T12:02:06;6.07;;;4.83;;
6376;SDS011;3221;48.858;10.128;2023-04-10T12:04:35;6.40;;;4.80;;
6376;SDS011;3221;48.858;10.128;2023-04-10T12:07:03;4.60;;;4.10;;
6376;SDS011;3221;48.858;10.128;2023-04-10T12:09:30;5.83;;;4.83;;
6376;SDS011;3221;48.858;10.128;2023-04-10T12:11:58;5.57;;;4.33;;
6376;SDS011;3221;48.858;10.128;2023-04-10T12:14:30;4.87;;;4.03;;
6376;SDS011;3221;48.858;10.128;2023-04-10T12:17:02;4.93;;;3.90;;
6376;SDS011;3221;48.858;10.128;2023-04-10T12:19:31;5.80;;;4.50;;
6376;SDS011;3221;48.858;10.128;2023-04-10T12:21:59;6.00;;;4.57;;
6376;SDS011;3221;48.858;10.128;2023-04-10T12:24:39;4.97;;;4.10;;
6376;SDS011;3221;48.858;10.128;2023-04-10T12:27:17;5.03;;;4.30;;
6376;SDS011;3221;48.858;10.128;2023-04-10T12:29:47;4.93;;;4.10;;
6376;SDS011;3221;48.858;10.128;2023-04-10T12:32:16;5.87;;;4.50;;
6376;SDS011;3221;48.858;10.128;2023-04-10T12:34:49;5.23;;;4.30;;
6376;SDS011;3221;48.858;10.128;2023-04-10T12:37:18;5.60;;;4.10;;
6376;SDS011;3221;48.858;10.128;2023-04-10T12:39:45;6.67;;;4.50;;
6376;SDS011;3221;48.858;10.128;2023-04-10T12:42:13;4.77;;;4.23;;
6376;SDS011;3221;48.858;10.128;2023-04-10T12:44:51;4.97;;;4.30;;
6376;SDS011;3221;48.858;10.128;2023-04-10T12:47:19;4.00;;;3.30;;
6376;SDS011;3221;48.858;10.128;2023-04-10T12:52:30;5.00;;;3.97;;
6376;SDS011;3221;48.858;10.128;2023-04-10T12:55:10;5.30;;;4.03;;
6376;SDS011;3221;48.858;10.128;2023-04-10T12:57:39;5.10;;;4.37;;
6376;SDS011;3221;48.858;10.128;2023-04-10T13:00:08;6.43;;;4.37;;
6376;SDS011;3221;48.858;10.128;2023-04-10T13:02:38;4.73;;;3.83;;
6376;SDS011;3221;48.858;10.128;2023-04-10T13:05:06;5.10;;;4.20;;
6376;SDS011;3221;48.858;10.128;2023-04-10T13:07:34;4.90;;;3.90;;
6376;SDS011;3221;48.858;10.128;2023-04-10T13:10:04;4.43;;;3.93;;
6376;SDS011;3221;48.858;10.128;2023-04-10T13:12:33;4.90;;;4.07;;
6376;SDS011;3221;48.858;10.128;2023-04-10T13:15:01;5.03;;;3.67;;
6376;SDS011;3221;48.858;10.128;2023-04-10T13:17:28;4.40;;;4.00;;
6376;SDS011;3221;48.858;10.128;2023-04-10T13:19:55;5.23;;;3.80;;
6376;SDS011;3221;48.858;10.128;2023-04-10T13:22:22;4.33;;;3.77;;
6376;SDS011;3221;48.858;10.128;2023-04-10T13:24:49;4.73;;;3.80;;
6376;SDS011;3221;48.858;10.128;2023-04-10T13:27:16;4.20;;;3.53;;
6376;SDS011;3221;48.858;10.128;2023-04-10T13:29:43;4.33;;;3.70;;
6376;SDS011;3221;48.858;10.128;2023-04-10T13:32:10;4.60;;;3.40;;
6376;SDS011;3221;48.858;10.128;2023-04-10T13:34:37;4.03;;;3.63;;
6376;SDS011;3221;48.858;10.128;2023-04-10T13:37:04;4.70;;;4.00;;
6376;SDS011;3221;48.858;10.128;2023-04-10T13:39:31;4.63;;;3.90;;
6376;SDS011;3221;48.858;10.128;2023-04-10T13:41:58;4.30;;;3.70;;
6376;SDS011;3221;48.858;10.128;2023-04-10T13:44:25;4.67;;;4.07;;
6376;SDS011;3221;48.858;10.128;2023-04-10T13:46:52;4.40;;;3.53;;
6376;SDS011;3221;48.858;10.128;2023-04-10T13:49:19;4.47;;;3.83;;
6376;SDS011;3221;48.858;10.128;2023-04-10T13:51:47;4.23;;;3.47;;
6376;SDS011;3221;48.858;10.128;2023-04-10T13:54:14;4.60;;;3.80;;
6376;SDS011;3221;48.858;10.128;2023-04-10T13:56:45;4.17;;;3.50;;
6376;SDS011;3221;48.858;10.128;2023-04-10T13:59:12;4.07;;;3.60;;
6376;SDS011;3221;48.858;10.128;2023-04-10T14:01:39;3.87;;;3.37;;
6376;SDS011;3221;48.858;10.128;2023-04-10T14:04:06;4.40;;;3.80;;
6376;SDS011;3221;48.858;10.128;2023-04-10T14:06:34;3.87;;;3.23;;
6376;SDS011;3221;48.858;10.128;2023-04-10T14:09:00;4.40;;;3.70;;
6376;SDS011;3221;48.858;10.128;2023-04-10T14:11:27;5.20;;;4.07;;
6376;SDS011;3221;48.858;10.128;2023-04-10T14:13:54;4.23;;;3.83;;
6376;SDS011;3221;48.858;10.128;2023-04-10T14:16:21;4.97;;;3.73;;
6376;SDS011;3221;48.858;10.128;2023-04-10T14:18:48;5.43;;;3.60;;
6376;SDS011;3221;48.858;10.128;2023-04-10T14:21:15;5.07;;;3.67;;
6376;SDS011;3221;48.858;10.128;2023-04-10T14:23:45;4.47;;;3.30;;
6376;SDS011;3221;48.858;10.128;2023-04-10T14:26:13;5.87;;;3.50;;
6376;SDS011;3221;48.858;10.128;2023-04-10T14:28:39;6.67;;;4.10;;
6376;SDS011;3221;48.858;10.128;2023-04-10T14:31:07;3.60;;;3.30;;
6376;SDS011;3221;48.858;10.128;2023-04-10T14:33:34;3.97;;;3.57;;
6376;SDS011;3221;48.858;10.128;2023-04-10T14:36:01;4.23;;;3.63;;
6376;SDS011;3221;48.858;10.128;2023-04-10T14:38:28;3.90;;;2.87;;
6376;SDS011;3221;48.858;10.128;2023-04-10T14:40:55;4.30;;;3.53;;
6376;SDS011;3221;48.858;10.128;2023-04-10T14:43:22;4.07;;;3.60;;
6376;SDS011;3221;48.858;10.128;2023-04-10T14:45:49;3.83;;;3.43;;
6376;SDS011;3221;48.858;10.128;2023-04-10T14:48:16;4.57;;;3.57;;
6376;SDS011;3221;48.858;10.128;2023-04-10T14:50:45;4.53;;;3.57;;
6376;SDS011;3221;48.858;10.128;2023-04-10T14:53:13;4.23;;;3.60;;
6376;SDS011;3221;48.858;10.128;2023-04-10T14:55:40;4.23;;;3.63;;
6376;SDS011;3221;48.858;10.128;2023-04-10T14:58:07;4.07;;;3.67;;
6376;SDS011;3221;48.858;10.128;2023-04-10T15:00:36;4.13;;;3.50;;
6376;SDS011;3221;48.858;10.128;2023-04-10T15:03:03;4.33;;;3.47;;
6376;SDS011;3221;48.858;10.128;2023-04-10T15:05:31;4.53;;;3.50;;
6376;SDS011;3221;48.858;10.128;2023-04-10T15:07:58;3.90;;;3.50;;
6376;SDS011;3221;48.858;10.128;2023-04-10T15:10:27;4.27;;;3.50;;
6376;SDS011;3221;48.858;10.128;2023-04-10T15:12:55;4.90;;;3.67;;
6376;SDS011;3221;48.858;10.128;2023-04-10T15:15:22;4.77;;;3.67;;
6376;SDS011;3221;48.858;10.128;2023-04-10T15:17:49;4.03;;;3.47;;
6376;SDS011;3221;48.858;10.128;2023-04-10T15:20:16;4.43;;;3.53;;
6376;SDS011;3221;48.858;10.128;2023-04-10T15:22:43;4.27;;;3.73;;
6376;SDS011;3221;48.858;10.128;2023-04-10T15:25:10;4.63;;;3.60;;
6376;SDS011;3221;48.858;10.128;2023-04-10T15:27:37;4.60;;;3.60;;
6376;SDS011;3221;48.858;10.128;2023-04-10T15:30:04;4.67;;;3.47;;
6376;SDS011;3221;48.858;10.128;2023-04-10T15:32:32;4.60;;;3.53;;
6376;SDS011;3221;48.858;10.128;2023-04-10T15:34:59;3.80;;;3.40;;